sensor_id;sensor_type;location;lat;lon;timestamp;pressure;altitude;pressure_sealevel;temperature
19948;BMP180;10135;50.702;7.276;2023-05-17T05:01:55;100292.00;;;13.50
19948;BMP180;10135;50.702;7.276;2023-05-17T05:03:57;100298.00;;;13.50
19948;BMP180;10135;50.702;7.276;2023-05-17T05:05:58;100295.00;;;13.50
19948;BMP180;10135;50.702;7.276;2023-05-17T05:07:58;100301.00;;;13.50
19948;BMP180;10135;50.702;7.276;2023-05-17T05:09:59;100304.00;;;13.60
19948;BMP180;10135;50.702;7.276;2023-05-17T05:12:00;100310.00;;;13.60
19948;BMP180;10135;50.702;7.276;2023-05-17T05:14:01;100317.00;;;13.60
19948;BMP180;10135;50.702;7.276;2023-05-17T05:16:01;100315.00;;;13.60
19948;BMP180;10135;50.702;7.276;2023-05-17T05:18:02;100325.00;;;13.60
19948;BMP180;10135;50.702;7.276;2023-05-17T05:20:04;100326.00;;;13.60
19948;BMP180;10135;50.702;7.276;2023-05-17T05:22:05;100324.00;;;13.70
19948;BMP180;10135;50.702;7.276;2023-05-17T05:24:06;100325.00;;;13.70
19948;BMP180;10135;50.702;7.276;2023-05-17T05:26:07;100330.00;;;13.70
19948;BMP180;10135;50.702;7.276;2023-05-17T05:28:07;100316.00;;;13.70
19948;BMP180;10135;50.702;7.276;2023-05-17T05:30:08;100324.00;;;13.70
19948;BMP180;10135;50.702;7.276;2023-05-17T05:32:09;100326.00;;;13.70
19948;BMP180;10135;50.702;7.276;2023-05-17T05:34:10;100334.00;;;13.70
19948;BMP180;10135;50.702;7.276;2023-05-17T05:36:10;100335.00;;;13.70
19948;BMP180;10135;50.702;7.276;2023-05-17T05:38:11;100339.00;;;13.80
19948;BMP180;10135;50.702;7.276;2023-05-17T05:40:12;100335.00;;;13.80
19948;BMP180;10135;50.702;7.276;2023-05-17T05:42:13;100335.00;;;13.90
19948;BMP180;10135;50.702;7.276;2023-05-17T05:44:14;100326.00;;;13.90
19948;BMP180;10135;50.702;7.276;2023-05-17T05:46:15;100333.00;;;13.90
19948;BMP180;10135;50.702;7.276;2023-05-17T05:48:15;100332.00;;;13.90
19948;BMP180;10135;50.702;7.276;2023-05-17T05:50:16;100331.00;;;14.00
19948;BMP180;10135;50.702;7.276;2023-05-17T05:52:16;100336.00;;;14.00
19948;BMP180;10135;50.702;7.276;2023-05-17T05:54:17;100331.00;;;14.00
19948;BMP180;10135;50.702;7.276;2023-05-17T05:56:18;100332.00;;;14.00
19948;BMP180;10135;50.702;7.276;2023-05-17T05:58:18;100331.00;;;14.00
19948;BMP180;10135;50.702;7.276;2023-05-17T06:00:19;100339.00;;;14.10
19948;BMP180;10135;50.702;7.276;2023-05-17T06:02:20;100334.00;;;14.10
19948;BMP180;10135;50.702;7.276;2023-05-17T06:04:20;100331.00;;;14.10
19948;BMP180;10135;50.702;7.276;2023-05-17T06:06:21;100336.00;;;14.10
19948;BMP180;10135;50.702;7.276;2023-05-17T06:08:22;100333.00;;;14.10
19948;BMP180;10135;50.702;7.276;2023-05-17T06:10:22;100339.00;;;14.10
19948;BMP180;10135;50.702;7.276;2023-05-17T06:12:23;100347.00;;;14.10
19948;BMP180;10135;50.702;7.276;2023-05-17T06:14:24;100344.00;;;14.10
19948;BMP180;10135;50.702;7.276;2023-05-17T06:16:25;100349.00;;;14.10
19948;BMP180;10135;50.702;7.276;2023-05-17T06:18:25;100351.00;;;14.10
19948;BMP180;10135;50.702;7.276;2023-05-17T06:20:26;100349.00;;;14.10
19948;BMP180;10135;50.702;7.276;2023-05-17T06:22:27;100354.00;;;14.10
19948;BMP180;10135;50.702;7.276;2023-05-17T06:24:27;100363.00;;;14.10
19948;BMP180;10135;50.702;7.276;2023-05-17T06:26:28;100355.00;;;14.20
19948;BMP180;10135;50.702;7.276;2023-05-17T06:28:28;100364.00;;;14.20
19948;BMP180;10135;50.702;7.276;2023-05-17T06:30:29;100364.00;;;14.20
19948;BMP180;10135;50.702;7.276;2023-05-17T06:32:30;100372.00;;;14.20
19948;BMP180;10135;50.702;7.276;2023-05-17T06:34:31;100376.00;;;14.20
19948;BMP180;10135;50.702;7.276;2023-05-17T06:36:32;100373.00;;;14.20
19948;BMP180;10135;50.702;7.276;2023-05-17T06:38:32;100375.00;;;14.20
19948;BMP180;10135;50.702;7.276;2023-05-17T06:40:33;100381.00;;;14.20
19948;BMP180;10135;50.702;7.276;2023-05-17T06:42:33;100382.00;;;14.20
19948;BMP180;10135;50.702;7.276;2023-05-17T06:44:34;100379.00;;;14.20
19948;BMP180;10135;50.702;7.276;2023-05-17T06:46:35;100380.00;;;14.20
19948;BMP180;10135;50.702;7.276;2023-05-17T06:48:35;100378.00;;;14.20
19948;BMP180;10135;50.702;7.276;2023-05-17T06:50:36;100384.00;;;14.20
19948;BMP180;10135;50.702;7.276;2023-05-17T06:52:37;100392.00;;;14.20
19948;BMP180;10135;50.702;7.276;2023-05-17T06:54:37;100387.00;;;14.20
19948;BMP180;10135;50.702;7.276;2023-05-17T06:56:38;100386.00;;;14.20
19948;BMP180;10135;50.702;7.276;2023-05-17T06:58:39;100387.00;;;14.30
19948;BMP180;10135;50.702;7.276;2023-05-17T07:00:40;100390.00;;;14.30
19948;BMP180;10135;50.702;7.276;2023-05-17T07:02:40;100387.00;;;14.30
19948;BMP180;10135;50.702;7.276;2023-05-17T07:04:41;100389.00;;;14.40
19948;BMP180;10135;50.702;7.276;2023-05-17T07:06:41;100389.00;;;14.40
19948;BMP180;10135;50.702;7.276;2023-05-17T07:08:42;100393.00;;;14.40
19948;BMP180;10135;50.702;7.276;2023-05-17T07:10:43;100388.00;;;14.50
19948;BMP180;10135;50.702;7.276;2023-05-17T07:12:44;100394.00;;;14.50
19948;BMP180;10135;50.702;7.276;2023-05-17T07:14:45;100387.00;;;14.60
19948;BMP180;10135;50.702;7.276;2023-05-17T07:16:45;100389.00;;;14.60
19948;BMP180;10135;50.702;7.276;2023-05-17T07:18:48;100397.00;;;14.70
19948;BMP180;10135;50.702;7.276;2023-05-17T07:20:48;100403.00;;;14.70
19948;BMP180;10135;50.702;7.276;2023-05-17T07:22:49;100414.00;;;14.80
19948;BMP180;10135;50.702;7.276;2023-05-17T07:24:50;100409.00;;;14.80
19948;BMP180;10135;50.702;7.276;2023-05-17T07:26:50;100407.00;;;14.80
19948;BMP180;10135;50.702;7.276;2023-05-17T07:28:51;100403.00;;;14.90
19948;BMP180;10135;50.702;7.276;2023-05-17T07:30:52;100403.00;;;14.90
19948;BMP180;10135;50.702;7.276;2023-05-17T07:32:53;100403.00;;;15.00
19948;BMP180;10135;50.702;7.276;2023-05-17T07:34:53;100403.00;;;15.00
19948;BMP180;10135;50.702;7.276;2023-05-17T07:36:54;100407.00;;;15.10
19948;BMP180;10135;50.702;7.276;2023-05-17T07:38:56;100400.00;;;15.20
19948;BMP180;10135;50.702;7.276;2023-05-17T07:40:57;100409.00;;;15.20
19948;BMP180;10135;50.702;7.276;2023-05-17T07:42:57;100411.00;;;15.30
19948;BMP180;10135;50.702;7.276;2023-05-17T07:44:58;100412.00;;;15.40
19948;BMP180;10135;50.702;7.276;2023-05-17T07:47:01;100406.00;;;15.50
19948;BMP180;10135;50.702;7.276;2023-05-17T07:49:01;100405.00;;;15.60
19948;BMP180;10135;50.702;7.276;2023-05-17T07:51:02;100414.00;;;15.60
19948;BMP180;10135;50.702;7.276;2023-05-17T07:53:03;100414.00;;;15.70
19948;BMP180;10135;50.702;7.276;2023-05-17T07:55:04;100422.00;;;15.70
19948;BMP180;10135;50.702;7.276;2023-05-17T07:57:05;100418.00;;;15.70
19948;BMP180;10135;50.702;7.276;2023-05-17T07:59:05;100421.00;;;15.80
19948;BMP180;10135;50.702;7.276;2023-05-17T08:01:06;100418.00;;;15.90
19948;BMP180;10135;50.702;7.276;2023-05-17T08:03:09;100417.00;;;16.00
19948;BMP180;10135;50.702;7.276;2023-05-17T08:05:09;100419.00;;;16.20
19948;BMP180;10135;50.702;7.276;2023-05-17T08:07:10;100417.00;;;16.30
19948;BMP180;10135;50.702;7.276;2023-05-17T08:09:11;100413.00;;;16.40
19948;BMP180;10135;50.702;7.276;2023-05-17T08:11:13;100413.00;;;16.50
19948;BMP180;10135;50.702;7.276;2023-05-17T08:13:14;100419.00;;;16.60
19948;BMP180;10135;50.702;7.276;2023-05-17T08:15:14;100413.00;;;16.60
19948;BMP180;10135;50.702;7.276;2023-05-17T08:17:15;100419.00;;;16.60
19948;BMP180;10135;50.702;7.276;2023-05-17T08:19:17;100417.00;;;16.70
19948;BMP180;10135;50.702;7.276;2023-05-17T08:21:18;100417.00;;;16.70
19948;BMP180;10135;50.702;7.276;2023-05-17T08:23:21;100421.00;;;16.80
19948;BMP180;10135;50.702;7.276;2023-05-17T08:25:21;100416.00;;;16.80
19948;BMP180;10135;50.702;7.276;2023-05-17T08:27:22;100421.00;;;16.80
19948;BMP180;10135;50.702;7.276;2023-05-17T08:29:24;100422.00;;;16.80
19948;BMP180;10135;50.702;7.276;2023-05-17T08:31:25;100423.00;;;16.70
19948;BMP180;10135;50.702;7.276;2023-05-17T08:33:26;100419.00;;;16.70
19948;BMP180;10135;50.702;7.276;2023-05-17T08:35:27;100426.00;;;16.60
19948;BMP180;10135;50.702;7.276;2023-05-17T08:37:28;100418.00;;;16.60
19948;BMP180;10135;50.702;7.276;2023-05-17T08:39:29;100415.00;;;16.60
19948;BMP180;10135;50.702;7.276;2023-05-17T08:41:30;100428.00;;;16.60
19948;BMP180;10135;50.702;7.276;2023-05-17T08:43:32;100424.00;;;16.60
19948;BMP180;10135;50.702;7.276;2023-05-17T08:45:34;100426.00;;;16.60
19948;BMP180;10135;50.702;7.276;2023-05-17T08:47:38;100420.00;;;16.60
19948;BMP180;10135;50.702;7.276;2023-05-17T08:49:39;100424.00;;;16.60
19948;BMP180;10135;50.702;7.276;2023-05-17T08:51:44;100423.00;;;16.60
19948;BMP180;10135;50.702;7.276;2023-05-17T08:53:46;100417.00;;;16.60
19948;BMP180;10135;50.702;7.276;2023-05-17T08:55:50;100416.00;;;16.60
19948;BMP180;10135;50.702;7.276;2023-05-17T08:57:51;100427.00;;;16.60
19948;BMP180;10135;50.702;7.276;2023-05-17T08:59:52;100422.00;;;16.60
19948;BMP180;10135;50.702;7.276;2023-05-17T09:01:54;100418.00;;;16.60
19948;BMP180;10135;50.702;7.276;2023-05-17T09:03:55;100416.00;;;16.60
19948;BMP180;10135;50.702;7.276;2023-05-17T09:05:57;100414.00;;;16.60
19948;BMP180;10135;50.702;7.276;2023-05-17T09:07:59;100415.00;;;16.70
19948;BMP180;10135;50.702;7.276;2023-05-17T09:10:00;100416.00;;;16.70
19948;BMP180;10135;50.702;7.276;2023-05-17T09:12:05;100423.00;;;16.70
19948;BMP180;10135;50.702;7.276;2023-05-17T09:14:06;100418.00;;;16.80
19948;BMP180;10135;50.702;7.276;2023-05-17T09:16:12;100419.00;;;16.80
19948;BMP180;10135;50.702;7.276;2023-05-17T09:18:14;100421.00;;;16.80
19948;BMP180;10135;50.702;7.276;2023-05-17T09:20:25;100419.00;;;16.80
19948;BMP180;10135;50.702;7.276;2023-05-17T09:22:36;100424.00;;;16.80
19948;BMP180;10135;50.702;7.276;2023-05-17T09:24:39;100419.00;;;16.80
19948;BMP180;10135;50.702;7.276;2023-05-17T09:26:44;100423.00;;;16.80
19948;BMP180;10135;50.702;7.276;2023-05-17T09:28:45;100421.00;;;16.80
19948;BMP180;10135;50.702;7.276;2023-05-17T09:30:48;100421.00;;;16.90
19948;BMP180;10135;50.702;7.276;2023-05-17T09:32:49;100422.00;;;16.90
19948;BMP180;10135;50.702;7.276;2023-05-17T09:34:50;100414.00;;;17.00
19948;BMP180;10135;50.702;7.276;2023-05-17T09:36:51;100418.00;;;17.10
19948;BMP180;10135;50.702;7.276;2023-05-17T09:39:02;100420.00;;;17.10
19948;BMP180;10135;50.702;7.276;2023-05-17T09:41:07;100421.00;;;17.20
19948;BMP180;10135;50.702;7.276;2023-05-17T09:43:09;100429.00;;;17.20
19948;BMP180;10135;50.702;7.276;2023-05-17T09:45:10;100424.00;;;17.30
19948;BMP180;10135;50.702;7.276;2023-05-17T09:47:27;100418.00;;;17.30
19948;BMP180;10135;50.702;7.276;2023-05-17T09:49:28;100431.00;;;17.30
19948;BMP180;10135;50.702;7.276;2023-05-17T09:51:39;100426.00;;;17.30
19948;BMP180;10135;50.702;7.276;2023-05-17T09:53:41;100427.00;;;17.40
19948;BMP180;10135;50.702;7.276;2023-05-17T09:55:47;100422.00;;;17.40
19948;BMP180;10135;50.702;7.276;2023-05-17T09:57:47;100419.00;;;17.40
19948;BMP180;10135;50.702;7.276;2023-05-17T09:59:49;100416.00;;;17.40
19948;BMP180;10135;50.702;7.276;2023-05-17T10:01:51;100414.00;;;17.50
19948;BMP180;10135;50.702;7.276;2023-05-17T10:03:53;100416.00;;;17.50
19948;BMP180;10135;50.702;7.276;2023-05-17T10:05:54;100410.00;;;17.60
19948;BMP180;10135;50.702;7.276;2023-05-17T10:07:55;100411.00;;;17.60
19948;BMP180;10135;50.702;7.276;2023-05-17T10:09:56;100406.00;;;17.60
19948;BMP180;10135;50.702;7.276;2023-05-17T10:11:57;100411.00;;;17.70
19948;BMP180;10135;50.702;7.276;2023-05-17T10:14:17;100414.00;;;17.70
19948;BMP180;10135;50.702;7.276;2023-05-17T10:16:19;100408.00;;;17.80
19948;BMP180;10135;50.702;7.276;2023-05-17T10:18:23;100395.00;;;17.80
19948;BMP180;10135;50.702;7.276;2023-05-17T10:20:25;100413.00;;;17.90
19948;BMP180;10135;50.702;7.276;2023-05-17T10:22:27;100409.00;;;17.90
19948;BMP180;10135;50.702;7.276;2023-05-17T10:24:30;100404.00;;;17.90
19948;BMP180;10135;50.702;7.276;2023-05-17T10:26:31;100403.00;;;17.90
19948;BMP180;10135;50.702;7.276;2023-05-17T10:28:33;100405.00;;;18.00
19948;BMP180;10135;50.702;7.276;2023-05-17T10:30:37;100403.00;;;18.00
19948;BMP180;10135;50.702;7.276;2023-05-17T10:32:38;100393.00;;;18.00
19948;BMP180;10135;50.702;7.276;2023-05-17T10:34:39;100397.00;;;18.10
19948;BMP180;10135;50.702;7.276;2023-05-17T10:36:43;100394.00;;;18.10
19948;BMP180;10135;50.702;7.276;2023-05-17T10:38:44;100399.00;;;18.10
19948;BMP180;10135;50.702;7.276;2023-05-17T10:40:46;100391.00;;;18.20
19948;BMP180;10135;50.702;7.276;2023-05-17T10:42:53;100398.00;;;18.20
19948;BMP180;10135;50.702;7.276;2023-05-17T10:44:54;100392.00;;;18.30
19948;BMP180;10135;50.702;7.276;2023-05-17T10:46:57;100398.00;;;18.30
19948;BMP180;10135;50.702;7.276;2023-05-17T10:49:00;100394.00;;;18.30
19948;BMP180;10135;50.702;7.276;2023-05-17T10:51:06;100393.00;;;18.30
19948;BMP180;10135;50.702;7.276;2023-05-17T10:53:08;100387.00;;;18.30
19948;BMP180;10135;50.702;7.276;2023-05-17T10:55:10;100383.00;;;18.30
19948;BMP180;10135;50.702;7.276;2023-05-17T10:57:21;100396.00;;;18.30
19948;BMP180;10135;50.702;7.276;2023-05-17T10:59:32;100383.00;;;18.30
19948;BMP180;10135;50.702;7.276;2023-05-17T11:02:01;100381.00;;;18.30
19948;BMP180;10135;50.702;7.276;2023-05-17T11:04:26;100376.00;;;18.40
19948;BMP180;10135;50.702;7.276;2023-05-17T11:06:35;100378.00;;;18.40
19948;BMP180;10135;50.702;7.276;2023-05-17T11:08:42;100374.00;;;18.50
19948;BMP180;10135;50.702;7.276;2023-05-17T11:13:24;100379.00;;;18.60
19948;BMP180;10135;50.702;7.276;2023-05-17T11:15:26;100376.00;;;18.70
19948;BMP180;10135;50.702;7.276;2023-05-17T11:22:10;100371.00;;;18.70
19948;BMP180;10135;50.702;7.276;2023-05-17T11:24:16;100365.00;;;18.80
19948;BMP180;10135;50.702;7.276;2023-05-17T11:26:32;100363.00;;;18.80
19948;BMP180;10135;50.702;7.276;2023-05-17T11:28:33;100369.00;;;18.90
19948;BMP180;10135;50.702;7.276;2023-05-17T11:30:41;100372.00;;;18.90
19948;BMP180;10135;50.702;7.276;2023-05-17T11:32:48;100375.00;;;18.90
19948;BMP180;10135;50.702;7.276;2023-05-17T11:34:53;100372.00;;;18.90
19948;BMP180;10135;50.702;7.276;2023-05-17T11:36:55;100365.00;;;18.90
19948;BMP180;10135;50.702;7.276;2023-05-17T11:39:16;100364.00;;;18.90
19948;BMP180;10135;50.702;7.276;2023-05-17T11:41:21;100362.00;;;19.00
19948;BMP180;10135;50.702;7.276;2023-05-17T11:43:24;100362.00;;;19.00
19948;BMP180;10135;50.702;7.276;2023-05-17T11:45:26;100355.00;;;19.10
19948;BMP180;10135;50.702;7.276;2023-05-17T11:47:28;100348.00;;;19.10
19948;BMP180;10135;50.702;7.276;2023-05-17T11:49:32;100349.00;;;19.10
19948;BMP180;10135;50.702;7.276;2023-05-17T11:51:33;100356.00;;;19.10
19948;BMP180;10135;50.702;7.276;2023-05-17T11:53:35;100361.00;;;19.20
19948;BMP180;10135;50.702;7.276;2023-05-17T11:55:48;100359.00;;;19.20
19948;BMP180;10135;50.702;7.276;2023-05-17T11:57:53;100349.00;;;19.20
19948;BMP180;10135;50.702;7.276;2023-05-17T12:00:02;100349.00;;;19.20
19948;BMP180;10135;50.702;7.276;2023-05-17T12:02:05;100354.00;;;19.30
19948;BMP180;10135;50.702;7.276;2023-05-17T12:04:05;100350.00;;;19.30
19948;BMP180;10135;50.702;7.276;2023-05-17T12:06:16;100357.00;;;19.30
19948;BMP180;10135;50.702;7.276;2023-05-17T12:08:18;100354.00;;;19.30
19948;BMP180;10135;50.702;7.276;2023-05-17T12:10:19;100351.00;;;19.30
19948;BMP180;10135;50.702;7.276;2023-05-17T12:12:21;100347.00;;;19.40
19948;BMP180;10135;50.702;7.276;2023-05-17T12:14:22;100344.00;;;19.40
19948;BMP180;10135;50.702;7.276;2023-05-17T12:16:24;100356.00;;;19.40
19948;BMP180;10135;50.702;7.276;2023-05-17T12:18:37;100356.00;;;19.40
19948;BMP180;10135;50.702;7.276;2023-05-17T12:20:37;100356.00;;;19.50
19948;BMP180;10135;50.702;7.276;2023-05-17T12:22:52;100349.00;;;19.50
19948;BMP180;10135;50.702;7.276;2023-05-17T12:24:53;100349.00;;;19.60
19948;BMP180;10135;50.702;7.276;2023-05-17T12:26:54;100353.00;;;19.60
19948;BMP180;10135;50.702;7.276;2023-05-17T12:28:58;100342.00;;;19.60
19948;BMP180;10135;50.702;7.276;2023-05-17T12:30:59;100349.00;;;19.60
19948;BMP180;10135;50.702;7.276;2023-05-17T12:33:02;100353.00;;;19.60
19948;BMP180;10135;50.702;7.276;2023-05-17T12:35:04;100345.00;;;19.70
19948;BMP180;10135;50.702;7.276;2023-05-17T12:37:06;100348.00;;;19.70
19948;BMP180;10135;50.702;7.276;2023-05-17T12:39:13;100347.00;;;19.80
19948;BMP180;10135;50.702;7.276;2023-05-17T12:41:15;100347.00;;;19.80
19948;BMP180;10135;50.702;7.276;2023-05-17T12:43:16;100354.00;;;19.90
19948;BMP180;10135;50.702;7.276;2023-05-17T12:45:18;100352.00;;;19.90
19948;BMP180;10135;50.702;7.276;2023-05-17T12:47:18;100342.00;;;19.90
19948;BMP180;10135;50.702;7.276;2023-05-17T12:49:19;100344.00;;;19.90
19948;BMP180;10135;50.702;7.276;2023-05-17T12:51:22;100348.00;;;19.90
19948;BMP180;10135;50.702;7.276;2023-05-17T12:53:23;100343.00;;;20.00
19948;BMP180;10135;50.702;7.276;2023-05-17T12:55:37;100343.00;;;20.00
19948;BMP180;10135;50.702;7.276;2023-05-17T12:57:37;100347.00;;;20.00
19948;BMP180;10135;50.702;7.276;2023-05-17T12:59:56;100335.00;;;20.00
19948;BMP180;10135;50.702;7.276;2023-05-17T13:01:57;100339.00;;;20.10
19948;BMP180;10135;50.702;7.276;2023-05-17T13:04:00;100342.00;;;20.10
19948;BMP180;10135;50.702;7.276;2023-05-17T13:06:06;100336.00;;;20.00
19948;BMP180;10135;50.702;7.276;2023-05-17T13:08:20;100340.00;;;20.10
19948;BMP180;10135;50.702;7.276;2023-05-17T13:10:23;100338.00;;;20.10
19948;BMP180;10135;50.702;7.276;2023-05-17T13:12:25;100345.00;;;20.20
19948;BMP180;10135;50.702;7.276;2023-05-17T13:14:39;100346.00;;;20.20
19948;BMP180;10135;50.702;7.276;2023-05-17T13:16:40;100345.00;;;20.20
19948;BMP180;10135;50.702;7.276;2023-05-17T13:18:49;100340.00;;;20.20
19948;BMP180;10135;50.702;7.276;2023-05-17T13:20:50;100342.00;;;20.20
19948;BMP180;10135;50.702;7.276;2023-05-17T13:22:52;100347.00;;;20.20
19948;BMP180;10135;50.702;7.276;2023-05-17T13:24:53;100342.00;;;20.30
19948;BMP180;10135;50.702;7.276;2023-05-17T13:26:54;100335.00;;;20.30
19948;BMP180;10135;50.702;7.276;2023-05-17T13:28:55;100336.00;;;20.40
19948;BMP180;10135;50.702;7.276;2023-05-17T13:30:55;100339.00;;;20.40
19948;BMP180;10135;50.702;7.276;2023-05-17T13:32:56;100334.00;;;20.50
19948;BMP180;10135;50.702;7.276;2023-05-17T13:34:57;100344.00;;;20.50
19948;BMP180;10135;50.702;7.276;2023-05-17T13:36:58;100341.00;;;20.50
19948;BMP180;10135;50.702;7.276;2023-05-17T13:38:58;100341.00;;;20.50
19948;BMP180;10135;50.702;7.276;2023-05-17T13:41:01;100339.00;;;20.50
19948;BMP180;10135;50.702;7.276;2023-05-17T13:43:02;100336.00;;;20.50
19948;BMP180;10135;50.702;7.276;2023-05-17T13:45:03;100335.00;;;20.60
19948;BMP180;10135;50.702;7.276;2023-05-17T13:47:05;100340.00;;;20.60
19948;BMP180;10135;50.702;7.276;2023-05-17T13:49:06;100337.00;;;20.60
19948;BMP180;10135;50.702;7.276;2023-05-17T13:51:07;100339.00;;;20.60
19948;BMP180;10135;50.702;7.276;2023-05-17T13:53:07;100335.00;;;20.60
19948;BMP180;10135;50.702;7.276;2023-05-17T13:55:08;100330.00;;;20.60
19948;BMP180;10135;50.702;7.276;2023-05-17T13:57:10;100338.00;;;20.60
19948;BMP180;10135;50.702;7.276;2023-05-17T13:59:10;100346.00;;;20.60
19948;BMP180;10135;50.702;7.276;2023-05-17T14:01:11;100337.00;;;20.60
19948;BMP180;10135;50.702;7.276;2023-05-17T14:03:12;100340.00;;;20.60
19948;BMP180;10135;50.702;7.276;2023-05-17T14:05:12;100337.00;;;20.60
19948;BMP180;10135;50.702;7.276;2023-05-17T14:07:14;100336.00;;;20.60
19948;BMP180;10135;50.702;7.276;2023-05-17T14:09:15;100342.00;;;20.70
19948;BMP180;10135;50.702;7.276;2023-05-17T14:11:15;100336.00;;;20.70
19948;BMP180;10135;50.702;7.276;2023-05-17T14:13:16;100335.00;;;20.70
19948;BMP180;10135;50.702;7.276;2023-05-17T14:15:16;100320.00;;;20.70
19948;BMP180;10135;50.702;7.276;2023-05-17T14:17:17;100316.00;;;20.80
19948;BMP180;10135;50.702;7.276;2023-05-17T14:19:18;100332.00;;;20.80
19948;BMP180;10135;50.702;7.276;2023-05-17T14:21:18;100330.00;;;20.90
19948;BMP180;10135;50.702;7.276;2023-05-17T14:23:19;100334.00;;;20.90
19948;BMP180;10135;50.702;7.276;2023-05-17T14:25:20;100325.00;;;21.00
19948;BMP180;10135;50.702;7.276;2023-05-17T14:27:21;100330.00;;;21.00
19948;BMP180;10135;50.702;7.276;2023-05-17T14:29:21;100324.00;;;21.00
19948;BMP180;10135;50.702;7.276;2023-05-17T14:31:22;100317.00;;;20.90
19948;BMP180;10135;50.702;7.276;2023-05-17T14:33:22;100331.00;;;20.90
19948;BMP180;10135;50.702;7.276;2023-05-17T14:35:23;100325.00;;;20.80
19948;BMP180;10135;50.702;7.276;2023-05-17T14:37:24;100317.00;;;20.70
19948;BMP180;10135;50.702;7.276;2023-05-17T14:39:25;100322.00;;;20.70
19948;BMP180;10135;50.702;7.276;2023-05-17T14:41:26;100322.00;;;20.70
19948;BMP180;10135;50.702;7.276;2023-05-17T14:43:27;100319.00;;;20.70
19948;BMP180;10135;50.702;7.276;2023-05-17T14:45:28;100315.00;;;20.60
19948;BMP180;10135;50.702;7.276;2023-05-17T14:47:28;100317.00;;;20.60
19948;BMP180;10135;50.702;7.276;2023-05-17T14:49:29;100326.00;;;20.60
19948;BMP180;10135;50.702;7.276;2023-05-17T14:51:30;100316.00;;;20.50
19948;BMP180;10135;50.702;7.276;2023-05-17T14:53:30;100319.00;;;20.50
19948;BMP180;10135;50.702;7.276;2023-05-17T14:55:31;100321.00;;;20.40
19948;BMP180;10135;50.702;7.276;2023-05-17T14:57:32;100311.00;;;20.40
19948;BMP180;10135;50.702;7.276;2023-05-17T14:59:34;100318.00;;;20.40
19948;BMP180;10135;50.702;7.276;2023-05-17T15:01:35;100317.00;;;20.40
19948;BMP180;10135;50.702;7.276;2023-05-17T15:03:36;100311.00;;;20.40
19948;BMP180;10135;50.702;7.276;2023-05-17T15:05:36;100314.00;;;20.40
19948;BMP180;10135;50.702;7.276;2023-05-17T15:07:38;100320.00;;;20.40
19948;BMP180;10135;50.702;7.276;2023-05-17T15:09:40;100310.00;;;20.40
19948;BMP180;10135;50.702;7.276;2023-05-17T15:11:41;100310.00;;;20.30
19948;BMP180;10135;50.702;7.276;2023-05-17T15:13:41;100315.00;;;20.30
19948;BMP180;10135;50.702;7.276;2023-05-17T15:15:43;100308.00;;;20.30
19948;BMP180;10135;50.702;7.276;2023-05-17T15:17:44;100315.00;;;20.30
19948;BMP180;10135;50.702;7.276;2023-05-17T15:19:44;100318.00;;;20.40
19948;BMP180;10135;50.702;7.276;2023-05-17T15:21:45;100311.00;;;20.40
19948;BMP180;10135;50.702;7.276;2023-05-17T15:23:46;100309.00;;;20.40
19948;BMP180;10135;50.702;7.276;2023-05-17T15:25:47;100311.00;;;20.40
19948;BMP180;10135;50.702;7.276;2023-05-17T15:27:48;100313.00;;;20.40
19948;BMP180;10135;50.702;7.276;2023-05-17T15:29:49;100305.00;;;20.40
19948;BMP180;10135;50.702;7.276;2023-05-17T15:31:50;100315.00;;;20.40
19948;BMP180;10135;50.702;7.276;2023-05-17T15:33:51;100309.00;;;20.40
19948;BMP180;10135;50.702;7.276;2023-05-17T15:35:51;100311.00;;;20.40
19948;BMP180;10135;50.702;7.276;2023-05-17T15:37:53;100315.00;;;20.30
19948;BMP180;10135;50.702;7.276;2023-05-17T15:39:54;100311.00;;;20.30
19948;BMP180;10135;50.702;7.276;2023-05-17T15:41:54;100315.00;;;20.30
19948;BMP180;10135;50.702;7.276;2023-05-17T15:43:55;100306.00;;;20.30
19948;BMP180;10135;50.702;7.276;2023-05-17T15:45:56;100308.00;;;20.30
19948;BMP180;10135;50.702;7.276;2023-05-17T15:47:57;100309.00;;;20.30
19948;BMP180;10135;50.702;7.276;2023-05-17T15:50:01;100314.00;;;20.30
19948;BMP180;10135;50.702;7.276;2023-05-17T15:52:02;100311.00;;;20.30
19948;BMP180;10135;50.702;7.276;2023-05-17T15:54:03;100313.00;;;20.30
19948;BMP180;10135;50.702;7.276;2023-05-17T15:56:04;100317.00;;;20.30
19948;BMP180;10135;50.702;7.276;2023-05-17T15:58:04;100314.00;;;20.20
19948;BMP180;10135;50.702;7.276;2023-05-17T16:00:08;100308.00;;;20.20
19948;BMP180;10135;50.702;7.276;2023-05-17T16:02:09;100318.00;;;20.20
19948;BMP180;10135;50.702;7.276;2023-05-17T16:04:11;100312.00;;;20.20
19948;BMP180;10135;50.702;7.276;2023-05-17T16:06:12;100315.00;;;20.10
19948;BMP180;10135;50.702;7.276;2023-05-17T16:08:16;100310.00;;;20.10
19948;BMP180;10135;50.702;7.276;2023-05-17T16:10:17;100320.00;;;20.00
19948;BMP180;10135;50.702;7.276;2023-05-17T16:12:17;100319.00;;;19.90
19948;BMP180;10135;50.702;7.276;2023-05-17T16:14:18;100310.00;;;19.90
19948;BMP180;10135;50.702;7.276;2023-05-17T16:16:18;100313.00;;;19.90
19948;BMP180;10135;50.702;7.276;2023-05-17T16:18:19;100313.00;;;19.90
19948;BMP180;10135;50.702;7.276;2023-05-17T16:20:20;100319.00;;;19.80
19948;BMP180;10135;50.702;7.276;2023-05-17T16:22:21;100314.00;;;19.80
19948;BMP180;10135;50.702;7.276;2023-05-17T16:24:22;100316.00;;;19.70
19948;BMP180;10135;50.702;7.276;2023-05-17T16:26:22;100319.00;;;19.70
19948;BMP180;10135;50.702;7.276;2023-05-17T16:28:23;100316.00;;;19.70
19948;BMP180;10135;50.702;7.276;2023-05-17T16:30:24;100322.00;;;19.70
19948;BMP180;10135;50.702;7.276;2023-05-17T16:32:25;100319.00;;;19.70
19948;BMP180;10135;50.702;7.276;2023-05-17T16:34:26;100321.00;;;19.70
19948;BMP180;10135;50.702;7.276;2023-05-17T16:36:27;100323.00;;;19.70
19948;BMP180;10135;50.702;7.276;2023-05-17T16:38:28;100325.00;;;19.70
19948;BMP180;10135;50.702;7.276;2023-05-17T16:40:29;100320.00;;;19.70
19948;BMP180;10135;50.702;7.276;2023-05-17T16:42:29;100317.00;;;19.70